createdAt,value
2018-12-17T00:00:37.729Z,94618.79
2018-12-17T00:03:05.864Z,94625.64
2018-12-17T00:05:34.027Z,94616.97
2018-12-17T00:08:02.294Z,94618.33
2018-12-17T00:10:30.331Z,94621.38
2018-12-17T00:12:58.333Z,94623.73
2018-12-17T00:15:26.486Z,94612.34
2018-12-17T00:17:54.533Z,94613.16
2018-12-17T00:20:22.560Z,94618.33
2018-12-17T00:22:50.603Z,94609.78
2018-12-17T00:25:18.635Z,94617.83
2018-12-17T00:27:46.657Z,94618.46
2018-12-17T00:30:14.795Z,94618.59
2018-12-17T00:32:42.834Z,94615.47
2018-12-17T00:35:10.933Z,94624.80
2018-12-17T00:37:38.965Z,94620.10
2018-12-17T00:40:07.834Z,94615.97
2018-12-17T00:42:35.853Z,94616.62
2018-12-17T00:45:04.241Z,94619.67
2018-12-17T00:47:32.266Z,94620.67
2018-12-17T00:50:00.287Z,94625.94
2018-12-17T00:52:28.399Z,94617.26
2018-12-17T00:54:56.488Z,94626.09
2018-12-17T00:57:24.514Z,94624.54
2018-12-17T00:59:52.531Z,94627.02
2018-12-17T01:02:20.621Z,94626.38
2018-12-17T01:04:48.633Z,94640.09
2018-12-17T01:07:18.870Z,94635.05
2018-12-17T01:09:46.958Z,94644.46
2018-12-17T01:12:14.978Z,94640.60
2018-12-17T01:14:43.002Z,94652.25
2018-12-17T01:17:11.086Z,94658.05
2018-12-17T01:19:39.146Z,94663.18
2018-12-17T01:22:07.234Z,94670.77
2018-12-17T01:24:35.275Z,94671.66
2018-12-17T01:27:03.398Z,94663.09
2018-12-17T01:29:31.424Z,94665.30
2018-12-17T01:31:59.507Z,94670.43
2018-12-17T01:34:27.521Z,94672.95
2018-12-17T01:36:55.646Z,94670.31
2018-12-17T01:39:23.661Z,94675.99
2018-12-17T01:41:51.764Z,94675.67
2018-12-17T01:44:19.779Z,94674.57
2018-12-17T01:46:47.873Z,94678.00
2018-12-17T01:49:15.891Z,94675.20
2018-12-17T01:51:43.993Z,94675.35
2018-12-17T01:54:11.997Z,94674.89
2018-12-17T01:56:40.025Z,94676.48
2018-12-17T01:59:08.126Z,94671.65
2018-12-17T02:01:36.317Z,94672.39
2018-12-17T02:04:04.406Z,94667.16
2018-12-17T02:06:32.429Z,94667.37
2018-12-17T02:09:00.454Z,94666.45
2018-12-17T02:11:28.539Z,94660.13
2018-12-17T02:13:56.562Z,94650.52
2018-12-17T02:16:24.590Z,94657.05
2018-12-17T02:18:52.622Z,94665.66
2018-12-17T02:21:20.659Z,94658.17
2018-12-17T02:23:48.744Z,94665.03
2018-12-17T02:26:16.786Z,94662.16
2018-12-17T02:28:44.807Z,94671.05
2018-12-17T02:31:12.832Z,94679.42
2018-12-17T02:33:40.865Z,94683.02
2018-12-17T02:36:08.990Z,94678.58
2018-12-17T02:38:37.166Z,94679.04
2018-12-17T02:41:05.186Z,94675.05
2018-12-17T02:43:33.218Z,94675.35
2018-12-17T02:46:01.305Z,94671.89
2018-12-17T02:48:29.341Z,94678.45
2018-12-17T02:50:57.357Z,94680.73
2018-12-17T02:53:25.503Z,94679.77
2018-12-17T02:55:53.572Z,94683.67
2018-12-17T02:58:21.666Z,94681.92
2018-12-17T03:00:49.752Z,94684.44
2018-12-17T03:03:17.871Z,94689.93
2018-12-17T03:05:46.080Z,94690.60
2018-12-17T03:08:14.110Z,94692.60
2018-12-17T03:10:42.124Z,94691.86
2018-12-17T03:13:10.168Z,94690.36
2018-12-17T03:15:38.290Z,94693.64
2018-12-17T03:18:06.391Z,94684.75
2018-12-17T03:20:34.489Z,94694.63
2018-12-17T03:23:02.525Z,94702.23
2018-12-17T03:25:30.682Z,94704.95
2018-12-17T03:27:58.721Z,94704.72
2018-12-17T03:30:26.808Z,94707.36
2018-12-17T03:32:55.126Z,94708.59
2018-12-17T03:35:23.249Z,94709.91
2018-12-17T03:37:51.325Z,94709.73
2018-12-17T03:40:19.570Z,94714.58
2018-12-17T03:42:47.609Z,94707.38
2018-12-17T03:45:15.698Z,94708.64
2018-12-17T03:47:43.823Z,94710.98
2018-12-17T03:50:11.920Z,94713.50
2018-12-17T03:52:39.955Z,94717.94
2018-12-17T03:55:08.118Z,94722.50
2018-12-17T03:57:36.142Z,94728.43
2018-12-17T04:02:50.974Z,94735.05
2018-12-17T04:05:19.053Z,94734.13
2018-12-17T04:07:47.184Z,94736.67
2018-12-17T04:10:15.302Z,94731.83
2018-12-17T04:12:43.334Z,94729.16
2018-12-17T04:15:11.443Z,94731.84
2018-12-17T04:17:39.464Z,94731.69
2018-12-17T04:20:07.631Z,94730.38
2018-12-17T04:22:35.652Z,94732.45
2018-12-17T04:25:03.770Z,94731.55
2018-12-17T04:27:31.859Z,94738.69
2018-12-17T04:29:59.973Z,94736.23
2018-12-17T04:32:28.006Z,94739.97
2018-12-17T04:34:56.042Z,94740.74
2018-12-17T04:37:24.062Z,94742.36
2018-12-17T04:39:52.103Z,94740.28
2018-12-17T04:42:20.136Z,94743.19
2018-12-17T04:44:48.176Z,94746.45
2018-12-17T04:47:16.206Z,94744.69
2018-12-17T04:49:44.244Z,94749.55
2018-12-17T04:52:12.286Z,94755.58
2018-12-17T04:54:40.325Z,94760.62
2018-12-17T04:57:08.353Z,94756.60
2018-12-17T04:59:36.470Z,94765.88
2018-12-17T05:02:05.601Z,94769.45
2018-12-17T05:04:33.697Z,94765.33
2018-12-17T05:07:01.744Z,94767.39
2018-12-17T05:09:29.877Z,94762.64
2018-12-17T05:11:57.955Z,94761.53
2018-12-17T05:14:26.034Z,94772.27
2018-12-17T05:16:54.078Z,94775.78
2018-12-17T05:19:22.099Z,94776.89
2018-12-17T05:21:50.171Z,94780.41
2018-12-17T05:24:18.199Z,94787.52
2018-12-17T05:26:46.238Z,94786.56
2018-12-17T05:29:21.406Z,94793.78
2018-12-17T05:31:44.287Z,94795.20
2018-12-17T05:34:12.331Z,94800.16
2018-12-17T05:36:40.518Z,94795.59
2018-12-17T05:39:08.617Z,94803.21
2018-12-17T05:41:36.679Z,94812.44
2018-12-17T05:44:04.775Z,94811.31
2018-12-17T05:46:32.838Z,94819.41
2018-12-17T05:49:00.878Z,94820.59
2018-12-17T05:51:28.894Z,94824.48
2018-12-17T05:53:56.943Z,94821.45
2018-12-17T05:56:24.974Z,94827.70
2018-12-17T06:01:34.509Z,94824.08
2018-12-17T06:04:02.637Z,94827.50
2018-12-17T06:06:30.670Z,94825.20
2018-12-17T06:08:58.715Z,94827.67
2018-12-17T06:11:27.555Z,94823.19
2018-12-17T06:13:55.702Z,94821.56
2018-12-17T06:16:24.077Z,94823.14
2018-12-17T06:18:52.118Z,94825.80
2018-12-17T06:21:20.210Z,94830.86
2018-12-17T06:23:48.331Z,94833.51
2018-12-17T06:26:16.370Z,94833.94
2018-12-17T06:28:44.426Z,94839.20
2018-12-17T06:31:12.478Z,94840.55
2018-12-17T06:33:40.535Z,94845.06
2018-12-17T06:36:08.645Z,94856.20
2018-12-17T06:38:36.717Z,94850.69
2018-12-17T06:41:04.771Z,94856.99
2018-12-17T06:43:32.927Z,94851.76
2018-12-17T06:46:00.974Z,94851.06
2018-12-17T06:48:29.045Z,94852.19
2018-12-17T06:50:57.176Z,94860.91
2018-12-17T06:56:18.261Z,94870.30
2018-12-17T06:58:46.478Z,94874.30
2018-12-17T07:01:14.550Z,94880.25
2018-12-17T07:03:42.647Z,94880.00
2018-12-17T07:06:10.734Z,94884.38
2018-12-17T07:08:38.819Z,94880.57
2018-12-17T07:11:07.108Z,94890.98
2018-12-17T07:13:35.181Z,94890.14
2018-12-17T07:16:03.258Z,94894.70
2018-12-17T07:18:31.313Z,94893.90
2018-12-17T07:20:59.364Z,94895.59
2018-12-17T07:23:27.491Z,94892.92
2018-12-17T07:25:55.593Z,94901.84
2018-12-17T07:28:23.689Z,94900.17
2018-12-17T07:30:51.784Z,94905.42
2018-12-17T07:33:19.824Z,94901.36
2018-12-17T07:35:47.938Z,94898.27
2018-12-17T07:38:15.971Z,94900.95
2018-12-17T07:40:44.065Z,94907.16
2018-12-17T07:43:12.098Z,94909.31
2018-12-17T07:45:40.201Z,94908.64
2018-12-17T07:48:08.301Z,94910.91
2018-12-17T07:50:36.370Z,94915.58
2018-12-17T07:53:05.022Z,94920.23
2018-12-17T07:55:33.673Z,94928.20
2018-12-17T07:58:01.717Z,94929.72
2018-12-17T08:00:29.757Z,94935.77
2018-12-17T08:02:57.802Z,94937.08
2018-12-17T08:05:25.922Z,94942.48
2018-12-17T08:07:53.970Z,94945.75
2018-12-17T08:10:22.002Z,94949.82
2018-12-17T08:12:50.060Z,94956.77
2018-12-17T08:15:18.093Z,94961.38
2018-12-17T08:17:46.218Z,94964.62
2018-12-17T08:20:14.254Z,94964.38
2018-12-17T08:22:42.974Z,94964.91
2018-12-17T08:25:11.217Z,94960.91
2018-12-17T08:27:39.267Z,94964.87
2018-12-17T08:30:07.706Z,94971.52
2018-12-17T08:32:35.826Z,94976.23
2018-12-17T08:35:04.008Z,94979.98
2018-12-17T08:37:32.119Z,94969.11
2018-12-17T08:40:00.150Z,94978.26
2018-12-17T08:42:28.203Z,94975.01
2018-12-17T08:44:56.239Z,94979.41
2018-12-17T08:47:24.294Z,94976.67
2018-12-17T08:49:52.372Z,94972.69
2018-12-17T08:52:20.426Z,94976.95
2018-12-17T08:54:48.538Z,94970.83
2018-12-17T08:57:16.575Z,94971.33
2018-12-17T08:59:44.682Z,94968.05
2018-12-17T09:02:12.723Z,94975.53
2018-12-17T09:04:40.834Z,94987.77
2018-12-17T09:07:08.989Z,94983.74
2018-12-17T09:09:37.031Z,94992.19
2018-12-17T09:12:05.123Z,94992.06
2018-12-17T09:14:33.249Z,94984.69
2018-12-17T09:17:01.398Z,94988.64
2018-12-17T09:19:29.501Z,94987.73
2018-12-17T09:21:57.598Z,95002.94
2018-12-17T09:24:25.934Z,95000.13
2018-12-17T09:26:54.209Z,95001.34
2018-12-17T09:29:22.306Z,95004.22
2018-12-17T09:31:50.334Z,95012.00
2018-12-17T09:34:18.370Z,95018.85
2018-12-17T09:36:46.482Z,95019.61
2018-12-17T09:39:14.525Z,95017.69
2018-12-17T09:41:42.599Z,95024.69
2018-12-17T09:44:10.701Z,95019.30
2018-12-17T09:46:38.893Z,95017.05
2018-12-17T09:49:06.933Z,95020.78
2018-12-17T09:51:34.970Z,95019.80
2018-12-17T09:54:03.083Z,95020.27
2018-12-17T09:56:31.195Z,95017.36
2018-12-17T09:58:59.294Z,95012.73
2018-12-17T10:01:27.398Z,95013.63
2018-12-17T10:03:55.575Z,95022.67
2018-12-17T10:06:23.733Z,95014.98
2018-12-17T10:08:51.764Z,95020.05
2018-12-17T10:11:19.877Z,95018.52
2018-12-17T10:13:48.010Z,95028.33
2018-12-17T10:16:16.049Z,95019.34
2018-12-17T10:18:44.085Z,95026.28
2018-12-17T10:21:12.141Z,95032.25
2018-12-17T10:23:40.331Z,95021.80
2018-12-17T10:26:08.647Z,95024.53
2018-12-17T10:28:36.742Z,95019.41
2018-12-17T10:31:04.863Z,95017.63
2018-12-17T10:33:32.906Z,95017.84
2018-12-17T10:36:00.939Z,95023.11
2018-12-17T10:38:28.969Z,95018.68
2018-12-17T10:40:57.011Z,95021.64
2018-12-17T10:43:25.046Z,95021.84
2018-12-17T10:45:53.087Z,95023.75
2018-12-17T10:48:21.182Z,95016.69
2018-12-17T10:50:49.235Z,95030.81
2018-12-17T10:53:17.266Z,95036.34
2018-12-17T10:55:45.299Z,95026.35
2018-12-17T10:58:13.338Z,95032.33
2018-12-17T11:00:46.646Z,95030.55
2018-12-17T11:03:18.485Z,95027.34
2018-12-17T11:05:47.191Z,95029.59
2018-12-17T11:08:15.213Z,95029.72
2018-12-17T11:10:43.311Z,95022.36
2018-12-17T11:13:11.590Z,95026.96
2018-12-17T11:15:39.610Z,95021.15
2018-12-17T11:18:07.720Z,95020.03
2018-12-17T11:20:35.823Z,95021.74
2018-12-17T11:23:03.862Z,95022.47
2018-12-17T11:25:31.889Z,95018.52
2018-12-17T11:27:59.977Z,95023.05
2018-12-17T11:30:28.199Z,95026.20
2018-12-17T11:32:56.359Z,95022.34
2018-12-17T11:35:24.509Z,95022.03
2018-12-17T11:37:52.595Z,95030.10
2018-12-17T11:40:20.693Z,95026.32
2018-12-17T11:42:48.801Z,95028.50
2018-12-17T11:45:17.005Z,95038.20
2018-12-17T11:47:45.100Z,95032.42
2018-12-17T11:50:13.128Z,95027.14
2018-12-17T11:52:41.162Z,95041.55
2018-12-17T11:55:09.347Z,95039.34
2018-12-17T11:58:11.342Z,95047.59
2018-12-17T12:00:41.552Z,95036.26
2018-12-17T12:03:09.619Z,95039.82
2018-12-17T12:05:37.637Z,95038.98
2018-12-17T12:08:05.987Z,95036.26
2018-12-17T12:10:34.067Z,95042.73
2018-12-17T12:13:02.165Z,95041.45
2018-12-17T12:15:30.199Z,95038.49
2018-12-17T12:17:58.223Z,95036.19
2018-12-17T12:20:26.315Z,95035.69
2018-12-17T12:22:54.409Z,95036.66
2018-12-17T12:25:22.542Z,95029.63
2018-12-17T12:27:50.576Z,95027.69
2018-12-17T12:30:18.669Z,95031.79
2018-12-17T12:32:46.841Z,95038.77
2018-12-17T12:35:15.035Z,95045.12
2018-12-17T12:37:43.067Z,95048.38
2018-12-17T12:40:11.166Z,95043.16
2018-12-17T12:42:39.187Z,95048.73
2018-12-17T12:45:07.492Z,95047.56
2018-12-17T12:47:35.518Z,95044.36
2018-12-17T12:50:03.946Z,95046.87
2018-12-17T12:52:31.978Z,95048.02
2018-12-17T12:55:00.077Z,95052.55
2018-12-17T12:57:28.102Z,95052.73
2018-12-17T12:59:56.132Z,95058.87
2018-12-17T13:02:24.155Z,95063.86
2018-12-17T13:04:52.206Z,95064.81
2018-12-17T13:07:20.323Z,95071.17
2018-12-17T13:09:48.342Z,95071.59
2018-12-17T13:12:16.425Z,95071.00
2018-12-17T13:14:44.602Z,95073.04
2018-12-17T13:17:18.115Z,95081.00
2018-12-17T13:19:46.207Z,95082.16
2018-12-17T13:22:14.266Z,95083.44
2018-12-17T13:24:42.287Z,95078.45
2018-12-17T13:27:10.313Z,95081.98
2018-12-17T13:29:38.342Z,95089.12
2018-12-17T13:32:06.431Z,95084.18
2018-12-17T13:34:34.596Z,95095.21
2018-12-17T13:37:02.773Z,95093.59
2018-12-17T13:39:31.503Z,95101.65
2018-12-17T13:41:59.542Z,95106.77
2018-12-17T13:44:27.578Z,95116.05
2018-12-17T13:46:56.173Z,95116.39
2018-12-17T13:49:25.477Z,95122.71
2018-12-17T13:51:59.348Z,95126.21
2018-12-17T13:54:27.998Z,95121.44
2018-12-17T13:56:57.124Z,95128.91
2018-12-17T13:59:25.910Z,95123.87
2018-12-17T14:01:54.579Z,95130.03
2018-12-17T14:04:23.203Z,95128.80
2018-12-17T14:06:51.815Z,95140.03
2018-12-17T14:09:20.453Z,95145.14
2018-12-17T14:11:49.083Z,95136.95
2018-12-17T14:14:17.974Z,95147.67
2018-12-17T14:16:51.784Z,95146.61
2018-12-17T14:19:26.984Z,95155.55
2018-12-17T14:21:59.254Z,95163.72
2018-12-17T14:24:28.424Z,95163.92
2018-12-17T14:26:57.169Z,95166.38
2018-12-17T14:29:25.780Z,95176.31
2018-12-17T14:31:54.463Z,95184.73
2018-12-17T14:34:23.117Z,95180.53
2018-12-17T14:36:51.828Z,95176.00
2018-12-17T14:39:20.469Z,95185.52
2018-12-17T14:41:49.160Z,95186.66
2018-12-17T14:44:22.777Z,95177.88
2018-12-17T14:46:56.926Z,95184.75
2018-12-17T14:49:25.486Z,95186.05
2018-12-17T14:51:54.113Z,95193.75
2018-12-17T14:54:23.721Z,95195.22
2018-12-17T14:56:52.331Z,95197.59
2018-12-17T14:59:20.952Z,95192.45
2018-12-17T15:01:49.588Z,95192.92
2018-12-17T15:04:18.207Z,95203.39
2018-12-17T15:06:46.641Z,95205.39
2018-12-17T15:09:15.417Z,95204.38
2018-12-17T15:11:44.086Z,95210.38
2018-12-17T15:14:12.751Z,95212.52
2018-12-17T15:16:41.338Z,95213.73
2018-12-17T15:19:10.011Z,95217.83
2018-12-17T15:21:38.577Z,95224.25
2018-12-17T15:24:07.144Z,95221.83
2018-12-17T15:26:35.815Z,95229.90
2018-12-17T15:29:04.638Z,95236.77
2018-12-17T15:31:33.134Z,95245.91
2018-12-17T15:34:01.922Z,95241.69
2018-12-17T15:36:30.572Z,95251.78
2018-12-17T15:38:59.328Z,95253.55
2018-12-17T15:41:27.954Z,95255.05
2018-12-17T15:43:56.434Z,95261.28
2018-12-17T15:46:24.821Z,95262.84
2018-12-17T15:48:53.470Z,95269.15
2018-12-17T15:51:22.159Z,95274.44
2018-12-17T15:53:50.727Z,95283.37
2018-12-17T15:56:19.369Z,95287.76
2018-12-17T15:58:48.041Z,95283.66
2018-12-17T16:01:16.700Z,95293.73
2018-12-17T16:03:45.345Z,95292.81
2018-12-17T16:06:14.055Z,95298.38
2018-12-17T16:08:43.116Z,95298.56
2018-12-17T16:11:11.755Z,95298.52
2018-12-17T16:13:40.326Z,95313.45
2018-12-17T16:16:09.114Z,95321.44
2018-12-17T16:18:37.913Z,95314.14
2018-12-17T16:21:06.591Z,95317.64
2018-12-17T16:23:35.305Z,95325.55
2018-12-17T16:26:03.881Z,95328.35
2018-12-17T16:28:32.603Z,95331.22
2018-12-17T16:31:01.252Z,95333.72
2018-12-17T16:33:30.273Z,95343.25
2018-12-17T16:35:59.084Z,95344.31
2018-12-17T16:38:27.618Z,95342.34
2018-12-17T16:40:56.275Z,95346.38
2018-12-17T16:43:24.950Z,95348.41
2018-12-17T16:45:53.866Z,95355.98
2018-12-17T16:48:22.833Z,95359.69
2018-12-17T16:50:51.494Z,95363.23
2018-12-17T16:53:20.421Z,95360.91
2018-12-17T16:55:49.060Z,95368.30
2018-12-17T16:58:17.777Z,95370.38
2018-12-17T17:00:46.845Z,95375.00
2018-12-17T17:03:15.429Z,95380.03
2018-12-17T17:05:44.313Z,95373.92
2018-12-17T17:08:13.116Z,95377.52
2018-12-17T17:10:42.051Z,95383.63
2018-12-17T17:13:10.640Z,95380.53
2018-12-17T17:15:39.746Z,95388.17
2018-12-17T17:18:09.641Z,95381.69
2018-12-17T17:20:38.420Z,95385.47
2018-12-17T17:23:07.125Z,95394.97
2018-12-17T17:25:35.779Z,95397.34
2018-12-17T17:28:04.508Z,95393.88
2018-12-17T17:30:33.176Z,95397.68
2018-12-17T17:33:01.811Z,95396.77
2018-12-17T17:35:30.560Z,95393.20
2018-12-17T17:37:59.206Z,95398.13
2018-12-17T17:40:27.874Z,95406.86
2018-12-17T17:42:56.171Z,95398.65
2018-12-17T17:45:24.529Z,95408.36
2018-12-17T17:47:52.570Z,95402.38
2018-12-17T17:50:20.732Z,95411.63
2018-12-17T17:52:48.764Z,95411.70
2018-12-17T17:55:16.824Z,95415.43
2018-12-17T17:57:44.857Z,95414.05
2018-12-17T18:00:13.193Z,95414.08
2018-12-17T18:02:41.220Z,95427.95
2018-12-17T18:05:12.586Z,95423.75
2018-12-17T18:07:40.619Z,95426.04
2018-12-17T18:10:09.322Z,95428.50
2018-12-17T18:12:37.378Z,95423.54
2018-12-17T18:15:06.173Z,95428.70
2018-12-17T18:17:34.206Z,95442.05
2018-12-17T18:20:02.224Z,95439.10
2018-12-17T18:22:30.337Z,95439.59
2018-12-17T18:24:58.396Z,95441.56
2018-12-17T18:27:26.412Z,95439.64
2018-12-17T18:29:54.506Z,95448.31
2018-12-17T18:32:25.851Z,95456.98
2018-12-17T18:34:52.672Z,95460.34
2018-12-17T18:37:20.761Z,95457.03
2018-12-17T18:39:48.795Z,95459.44
2018-12-17T18:42:16.832Z,95466.81
2018-12-17T18:44:44.863Z,95470.47
2018-12-17T18:47:12.909Z,95475.34
2018-12-17T18:49:40.999Z,95474.99
2018-12-17T18:52:09.059Z,95482.83
2018-12-17T18:54:37.140Z,95488.52
2018-12-17T18:57:05.300Z,95489.08
2018-12-17T18:59:33.337Z,95486.63
2018-12-17T19:02:01.442Z,95487.01
2018-12-17T19:04:29.469Z,95490.03
2018-12-17T19:06:57.501Z,95490.67
2018-12-17T19:09:25.610Z,95498.81
2018-12-17T19:11:53.638Z,95499.80
2018-12-17T19:14:21.778Z,95511.64
2018-12-17T19:16:50.050Z,95500.56
2018-12-17T19:19:18.081Z,95510.19
2018-12-17T19:21:46.201Z,95511.98
2018-12-17T19:24:14.365Z,95517.45
2018-12-17T19:26:42.632Z,95515.94
2018-12-17T19:29:10.678Z,95524.45
2018-12-17T19:31:38.709Z,95529.67
2018-12-17T19:34:06.810Z,95528.69
2018-12-17T19:36:34.842Z,95531.10
2018-12-17T19:39:02.949Z,95527.70
2018-12-17T19:41:30.972Z,95539.63
2018-12-17T19:43:59.027Z,95533.30
2018-12-17T19:46:27.121Z,95539.44
2018-12-17T19:48:55.230Z,95545.05
2018-12-17T19:51:23.342Z,95547.02
2018-12-17T19:53:51.413Z,95546.30
2018-12-17T19:56:19.541Z,95550.81
2018-12-17T19:58:47.571Z,95551.66
2018-12-17T20:01:15.705Z,95545.73
2018-12-17T20:03:43.732Z,95546.11
2018-12-17T20:06:11.833Z,95549.16
2018-12-17T20:08:39.878Z,95556.23
2018-12-17T20:11:07.973Z,95550.31
2018-12-17T20:13:36.068Z,95554.07
2018-12-17T20:16:04.167Z,95555.45
2018-12-17T20:18:32.231Z,95562.67
2018-12-17T20:21:00.297Z,95558.48
2018-12-17T20:23:28.439Z,95564.27
2018-12-17T20:25:56.465Z,95572.00
2018-12-17T20:28:24.540Z,95571.19
2018-12-17T20:30:52.564Z,95572.39
2018-12-17T20:33:20.584Z,95568.03
2018-12-17T20:35:48.636Z,95577.19
2018-12-17T20:38:16.735Z,95578.09
2018-12-17T20:40:44.820Z,95577.75
2018-12-17T20:43:12.848Z,95572.45
2018-12-17T20:45:40.958Z,95584.42
2018-12-17T20:48:08.981Z,95586.05
2018-12-17T20:50:37.017Z,95581.94
2018-12-17T20:53:05.097Z,95583.35
2018-12-17T20:55:33.114Z,95594.57
2018-12-17T20:58:01.166Z,95590.44
2018-12-17T21:00:29.197Z,95588.69
2018-12-17T21:03:00.291Z,95592.67
2018-12-17T21:05:27.325Z,95591.77
2018-12-17T21:07:55.760Z,95594.11
2018-12-17T21:10:24.116Z,95595.09
2018-12-17T21:12:52.776Z,95598.88
2018-12-17T21:15:20.826Z,95596.17
2018-12-17T21:17:48.848Z,95591.20
2018-12-17T21:20:16.873Z,95590.28
2018-12-17T21:22:44.960Z,95598.38
2018-12-17T21:25:13.115Z,95604.84
2018-12-17T21:27:41.308Z,95612.64
2018-12-17T21:30:09.882Z,95615.88
2018-12-17T21:32:37.971Z,95619.45
2018-12-17T21:35:06.429Z,95625.23
2018-12-17T21:37:34.694Z,95625.84
2018-12-17T21:40:02.803Z,95630.08
2018-12-17T21:42:30.829Z,95627.77
2018-12-17T21:44:58.868Z,95630.73
2018-12-17T21:47:26.945Z,95626.28
2018-12-17T21:49:54.998Z,95628.69
2018-12-17T21:52:23.018Z,95630.87
2018-12-17T21:54:51.129Z,95635.91
2018-12-17T21:57:19.162Z,95640.89
2018-12-17T21:59:47.270Z,95637.91
2018-12-17T22:02:15.296Z,95643.98
2018-12-17T22:04:43.415Z,95644.84
2018-12-17T22:07:11.442Z,95646.52
2018-12-17T22:09:39.465Z,95637.55
2018-12-17T22:12:07.561Z,95648.05
2018-12-17T22:14:35.666Z,95646.69
2018-12-17T22:17:03.764Z,95650.55
2018-12-17T22:19:31.780Z,95648.48
2018-12-17T22:21:59.970Z,95652.35
2018-12-17T22:24:27.997Z,95645.65
2018-12-17T22:26:56.030Z,95654.97
2018-12-17T22:29:24.073Z,95656.64
2018-12-17T22:31:52.121Z,95652.38
2018-12-17T22:34:20.144Z,95657.06
2018-12-17T22:36:48.401Z,95652.19
2018-12-17T22:39:16.435Z,95653.07
2018-12-17T22:41:44.520Z,95654.74
2018-12-17T22:44:12.557Z,95657.45
2018-12-17T22:46:40.641Z,95660.17
2018-12-17T22:49:08.703Z,95659.13
2018-12-17T22:51:36.717Z,95659.17
2018-12-17T22:54:04.825Z,95657.59
2018-12-17T22:56:32.931Z,95663.44
2018-12-17T22:59:01.049Z,95670.57
2018-12-17T23:01:29.125Z,95671.86
2018-12-17T23:03:57.180Z,95668.16
2018-12-17T23:06:25.196Z,95666.92
2018-12-17T23:09:02.645Z,95658.39
2018-12-17T23:11:47.450Z,95657.00
2018-12-17T23:14:26.907Z,95654.55
2018-12-17T23:17:06.462Z,95650.44
2018-12-17T23:19:41.275Z,95657.37
2018-12-17T23:22:09.377Z,95649.53
2018-12-17T23:24:37.758Z,95662.17
2018-12-17T23:27:05.932Z,95658.83
2018-12-17T23:29:34.107Z,95650.09
2018-12-17T23:32:02.362Z,95659.72
2018-12-17T23:34:30.436Z,95659.64
2018-12-17T23:36:58.589Z,95664.98
2018-12-17T23:39:26.601Z,95657.42
2018-12-17T23:41:54.713Z,95658.98
2018-12-17T23:44:22.841Z,95668.47
2018-12-17T23:46:50.877Z,95660.64
2018-12-17T23:49:18.908Z,95654.95
2018-12-17T23:51:47.070Z,95658.35
2018-12-17T23:54:15.092Z,95655.31
2018-12-17T23:56:43.203Z,95659.69
2018-12-17T23:59:11.248Z,95663.96
